Time;durP1;ratioP1;P1;durP2;ratioP2;P2;SDS_P1;SDS_P2;PMS_P1;PMS_P2;Temp;Humidity;BMP_temperature;BMP_pressure;BME280_temperature;BME280_humidity;BME280_pressure;Samples;Min_cycle;Max_cycle;Signal;HPM_P1;HPM_P2
2022/10/02 00:02:09;;;;;;;11.00;7.28;;;;;;;13.82;79.37;100948.69;5025057;28;20620;-78
2022/10/02 00:05:05;;;;;;;9.75;5.90;;;;;;;13.81;78.66;100941.66;5010025;28;20041;-81
2022/10/02 00:08:08;;;;;;;7.18;5.45;;;;;;;13.86;78.05;100961.41;4962986;28;1496691;-78
2022/10/02 00:10:58;;;;;;;10.63;7.10;;;;;;;13.77;78.07;100968.03;5038863;28;20045;-78
2022/10/02 00:13:48;;;;;;;11.95;7.05;;;;;;;13.82;77.99;100965.09;5024174;28;20481;-79
2022/10/02 00:16:39;;;;;;;12.75;7.63;;;;;;;13.51;79.43;100959.97;5026188;28;20417;-78
2022/10/02 00:19:24;;;;;;;13.32;7.97;;;;;;;13.30;80.66;100970.03;5025669;28;20501;-78
2022/10/02 00:22:16;;;;;;;13.45;8.13;;;;;;;13.27;80.83;100982.38;5023699;28;20061;-79
2022/10/02 00:25:16;;;;;;;11.70;8.00;;;;;;;13.44;80.10;100974.16;5021276;28;20053;-79
2022/10/02 00:28:13;;;;;;;12.23;7.15;;;;;;;13.43;80.76;100985.38;5000664;28;20038;-81
2022/10/02 00:31:28;;;;;;;10.27;7.55;;;;;;;13.26;82.09;100991.72;5020032;28;20049;-79
2022/10/02 00:34:36;;;;;;;8.02;4.95;;;;;;;13.23;82.19;100992.38;5014739;28;20034;-79
2022/10/02 00:37:40;;;;;;;13.20;8.13;;;;;;;13.20;81.08;101001.22;5009003;28;20054;-79
2022/10/02 00:40:55;;;;;;;13.82;9.50;;;;;;;13.15;81.86;100995.94;5018821;28;20041;-80
2022/10/02 00:43:55;;;;;;;11.48;7.43;;;;;;;13.26;81.67;100997.16;5031599;28;20512;-79
2022/10/02 00:46:42;;;;;;;13.85;7.65;;;;;;;13.11;82.56;100997.66;5035973;28;20050;-78
2022/10/02 00:49:57;;;;;;;10.98;7.78;;;;;;;13.24;82.36;100999.44;5015402;28;20049;-78
2022/10/02 00:52:57;;;;;;;11.65;7.60;;;;;;;13.25;82.29;101001.84;4995770;28;20502;-78
2022/10/02 00:55:51;;;;;;;12.07;9.63;;;;;;;13.53;83.64;100994.03;5014416;28;20049;-78
2022/10/02 00:58:58;;;;;;;15.98;9.13;;;;;;;13.53;83.43;100994.03;5029123;28;20049;-79
2022/10/02 01:01:52;;;;;;;10.48;7.43;;;;;;;13.42;82.93;101006.44;5012962;28;20045;-77
2022/10/02 01:04:39;;;;;;;15.25;7.57;;;;;;;13.45;81.88;101008.53;5015344;28;20042;-77
2022/10/02 01:07:24;;;;;;;11.52;7.68;;;;;;;12.92;83.69;101006.22;5013948;28;20409;-78
2022/10/02 01:10:11;;;;;;;12.07;7.95;;;;;;;12.98;84.30;101012.31;5014423;28;20052;-79
2022/10/02 01:12:57;;;;;;;14.65;8.50;;;;;;;13.14;84.29;101016.97;5014099;28;20053;-80
2022/10/02 01:15:54;;;;;;;9.68;8.00;;;;;;;13.30;82.85;101016.47;5011484;28;20037;-81
2022/10/02 01:18:41;;;;;;;11.23;8.60;;;;;;;13.02;84.46;101018.72;5018231;28;20048;-80
2022/10/02 01:21:46;;;;;;;13.18;9.32;;;;;;;12.80;85.98;101023.25;5013054;28;20122;-80
2022/10/02 01:24:48;;;;;;;11.38;8.52;;;;;;;12.86;86.13;101021.97;5016249;28;20072;-79
2022/10/02 01:27:34;;;;;;;15.68;10.10;;;;;;;12.80;86.63;101015.06;5014376;28;20405;-80
2022/10/02 01:30:20;;;;;;;13.75;9.77;;;;;;;12.83;86.83;101019.88;5012396;28;20045;-79
2022/10/02 01:33:07;;;;;;;13.15;9.88;;;;;;;12.82;86.77;101014.75;5020052;28;20042;-79
2022/10/02 01:35:52;;;;;;;11.85;8.63;;;;;;;13.12;84.93;101008.31;5022721;28;20046;-78
2022/10/02 01:38:38;;;;;;;;;;;;;;;12.96;85.86;101009.09;5021894;28;20513;-78
2022/10/02 01:41:23;;;;;;;14.43;9.85;;;;;;;12.83;86.76;101008.16;5016939;28;19917;-78
2022/10/02 01:44:09;;;;;;;14.40;9.77;;;;;;;13.01;85.53;101012.47;5016835;28;20033;-79
2022/10/02 01:47:07;;;;;;;24.02;11.20;;;;;;;13.06;85.90;101000.56;5015104;28;20050;-78
2022/10/02 01:50:44;;;;;;;14.98;10.73;;;;;;;13.16;84.32;100997.53;5016672;28;20046;-80
2022/10/02 01:53:43;;;;;;;14.85;10.70;;;;;;;13.07;84.26;100989.34;5004830;28;20050;-78
2022/10/02 01:56:53;;;;;;;12.85;8.88;;;;;;;13.18;84.04;100996.09;5015942;28;20041;-79
2022/10/02 01:59:52;;;;;;;14.68;9.82;;;;;;;13.21;83.56;100987.22;5015614;28;20413;-80
2022/10/02 02:02:40;;;;;;;13.80;9.80;;;;;;;13.27;83.46;100991.38;4998339;28;20053;-79
2022/10/02 02:05:53;;;;;;;10.68;7.93;;;;;;;13.13;82.25;100992.72;5010443;28;20409;-79
2022/10/02 02:09:08;;;;;;;10.90;7.72;;;;;;;12.98;82.76;101009.59;5015691;28;20425;-79
2022/10/02 02:12:09;;;;;;;11.50;8.15;;;;;;;12.93;82.39;101010.56;5014349;28;20038;-78
2022/10/02 02:15:03;;;;;;;9.85;7.88;;;;;;;12.91;82.26;101015.53;5032125;28;20049;-80
2022/10/02 02:18:05;;;;;;;12.57;8.45;;;;;;;13.09;81.85;101008.13;5008226;28;20057;-79
2022/10/02 02:20:52;;;;;;;11.30;8.57;;;;;;;13.00;82.10;101008.16;5021385;28;20041;-79
2022/10/02 02:23:39;;;;;;;13.18;8.63;;;;;;;12.97;82.70;101016.16;5017030;28;20046;-79
2022/10/02 02:26:27;;;;;;;14.85;8.88;;;;;;;13.14;80.63;101016.19;5019560;28;20504;-80
2022/10/02 02:29:15;;;;;;;13.63;8.70;;;;;;;13.19;81.95;101029.66;5020801;28;20068;-79
2022/10/02 02:32:05;;;;;;;13.00;8.88;;;;;;;12.94;81.99;101025.00;5030813;28;20501;-79
2022/10/02 02:35:00;;;;;;;11.77;8.48;;;;;;;13.05;81.74;101032.56;5038253;28;20425;-80
2022/10/02 02:37:48;;;;;;;15.23;9.32;;;;;;;12.72;83.44;101026.78;5025851;28;20057;-82
2022/10/02 02:40:38;;;;;;;13.73;8.98;;;;;;;12.79;83.68;101035.31;5022996;28;20421;-83
2022/10/02 02:43:30;;;;;;;13.77;8.00;;;;;;;12.76;83.33;101037.84;5030179;28;20037;-80
2022/10/02 02:46:28;;;;;;;10.45;7.82;;;;;;;12.83;83.15;101032.72;5025021;28;20048;-81
2022/10/02 02:49:13;;;;;;;13.55;8.32;;;;;;;12.74;82.41;101038.19;5027174;28;20045;-81
2022/10/02 02:52:01;;;;;;;;;;;;;;;12.63;83.16;101038.84;5025009;28;20046;-83
2022/10/02 02:54:55;;;;;;;9.68;6.65;;;;;;;12.25;84.35;101039.44;5022703;28;19913;-82
2022/10/02 02:57:48;;;;;;;9.25;6.50;;;;;;;12.21;85.21;101048.56;4998106;28;20049;-81
2022/10/02 03:00:33;;;;;;;13.60;6.68;;;;;;;12.16;85.23;101046.00;5016358;28;20065;-80
2022/10/02 03:03:18;;;;;;;;;;;;;;;12.40;84.26;101046.34;5037333;28;20563;-79
2022/10/02 03:06:10;;;;;;;8.00;6.60;;;;;;;12.18;85.63;101054.66;5020170;28;19913;-82
2022/10/02 03:08:55;;;;;;;15.55;6.50;;;;;;;12.12;86.43;101058.66;5038656;28;20053;-80
2022/10/02 03:11:58;;;;;;;;;;;;;;;12.30;85.29;101068.47;5021719;28;20414;-79
2022/10/02 03:15:16;;;;;;;8.48;5.70;;;;;;;12.12;86.16;101072.28;5022989;28;19914;-81
2022/10/02 03:18:19;;;;;;;9.65;6.32;;;;;;;12.30;85.70;101074.72;5017685;28;20153;-82
2022/10/02 03:21:09;;;;;;;8.38;5.88;;;;;;;12.43;84.33;101084.72;5022964;28;20044;-80
2022/10/02 03:24:04;;;;;;;7.70;6.10;;;;;;;12.42;85.19;101085.03;5020677;28;20409;-79
2022/10/02 03:27:02;;;;;;;8.97;6.47;;;;;;;12.27;85.99;101080.81;5018254;28;20068;-81
2022/10/02 03:29:57;;;;;;;12.05;5.95;;;;;;;12.21;84.01;101076.63;5020217;28;20053;-80
2022/10/02 03:32:45;;;;;;;10.90;6.35;;;;;;;12.20;84.47;101090.56;5015643;28;20037;-80
2022/10/02 03:35:31;;;;;;;7.78;5.95;;;;;;;12.00;85.36;101086.50;5022131;28;20211;-80
2022/10/02 03:38:17;;;;;;;8.38;6.55;;;;;;;12.03;85.66;101090.53;5015732;28;20551;-80
2022/10/02 03:41:06;;;;;;;11.07;6.50;;;;;;;12.05;85.33;101088.28;5016748;28;20049;-80
2022/10/02 03:43:51;;;;;;;17.35;6.95;;;;;;;11.91;85.44;101097.38;5035889;28;20057;-80
2022/10/02 03:46:35;;;;;;;5.30;4.35;;;;;;;11.97;85.15;101108.94;5016095;28;20041;-81
2022/10/02 03:49:20;;;;;;;9.52;5.95;;;;;;;11.79;85.78;101094.44;5015372;28;20092;-81
2022/10/02 03:52:05;;;;;;;8.82;6.18;;;;;;;11.67;87.26;101093.41;5019987;28;20520;-79
2022/10/02 03:54:55;;;;;;;6.28;4.43;;;;;;;11.88;86.08;101092.56;5000521;28;20069;-81
2022/10/02 03:57:43;;;;;;;12.63;7.47;;;;;;;12.02;85.65;101099.84;4996227;28;20580;-77
2022/10/02 04:00:36;;;;;;;10.05;7.07;;;;;;;12.12;85.28;101089.44;5017163;28;20057;-80
2022/10/02 04:03:26;;;;;;;12.10;7.30;;;;;;;12.26;84.69;101089.31;5012141;28;20122;-79
2022/10/02 04:06:17;;;;;;;19.02;7.13;;;;;;;12.16;84.74;101098.59;5005924;28;20489;-79
2022/10/02 04:09:29;;;;;;;17.42;7.25;;;;;;;11.96;86.05;101107.34;5018289;28;20038;-79
2022/10/02 04:12:20;;;;;;;10.75;6.30;;;;;;;11.90;86.40;101111.31;5002300;28;20409;-79
2022/10/02 04:15:39;;;;;;;11.48;6.60;;;;;;;11.84;85.53;101121.53;5013073;28;20042;-79
2022/10/02 04:18:28;;;;;;;10.02;6.70;;;;;;;11.70;86.58;101125.44;5006912;28;20049;-79
2022/10/02 04:21:25;;;;;;;11.88;6.63;;;;;;;11.80;86.24;101128.75;5028720;28;20041;-78
2022/10/02 04:24:33;;;;;;;11.30;6.80;;;;;;;11.75;86.71;101117.97;5010645;28;20505;-77
2022/10/02 04:27:31;;;;;;;8.82;6.82;;;;;;;11.56;87.15;101139.16;4993681;28;20042;-77
2022/10/02 04:30:18;;;;;;;10.98;6.45;;;;;;;11.82;86.07;101137.44;5009303;28;20065;-80
2022/10/02 04:33:19;;;;;;;10.82;6.75;;;;;;;12.09;85.90;101132.91;5025502;28;20413;-82
2022/10/02 04:36:19;;;;;;;11.18;7.18;;;;;;;12.21;85.52;101141.25;5017047;28;20045;-80
2022/10/02 04:39:24;;;;;;;13.88;7.63;;;;;;;12.24;85.20;101146.09;5031504;28;20041;-79
2022/10/02 04:42:33;;;;;;;13.18;7.78;;;;;;;12.26;84.87;101144.66;5012613;28;20052;-80
2022/10/02 04:45:25;;;;;;;10.07;6.50;;;;;;;12.47;82.96;101147.59;5012418;28;20041;-78
2022/10/02 04:48:18;;;;;;;9.07;6.32;;;;;;;12.10;82.31;101146.19;5008605;28;20042;-79
2022/10/02 04:51:22;;;;;;;10.30;6.00;;;;;;;11.95;83.59;101152.06;5027753;28;20516;-77
2022/10/02 04:54:33;;;;;;;8.70;6.20;;;;;;;11.98;83.33;101149.53;5015317;28;20044;-79
2022/10/02 04:57:45;;;;;;;13.52;6.80;;;;;;;12.08;83.14;101153.09;5004719;28;20532;-79
2022/10/02 05:00:41;;;;;;;12.20;6.47;;;;;;;11.49;85.67;101146.97;5011706;28;20052;-80
2022/10/02 05:03:49;;;;;;;11.73;6.93;;;;;;;11.61;85.66;101133.59;5008240;28;20045;-77
2022/10/02 05:06:59;;;;;;;10.60;6.85;;;;;;;11.69;85.82;101143.72;5004313;28;20038;-79
2022/10/02 05:10:31;;;;;;;12.77;6.43;;;;;;;11.85;84.87;101146.88;5024918;23;20045;-77
2022/10/02 05:13:31;;;;;;;10.95;6.43;;;;;;;11.82;85.37;101158.41;5009918;28;20049;-77
2022/10/02 05:16:31;;;;;;;7.25;6.03;;;;;;;11.80;84.84;101164.16;5010863;28;20421;-78
2022/10/02 05:19:19;;;;;;;11.48;6.07;;;;;;;11.73;85.55;101157.56;5014188;28;20049;-79
2022/10/02 05:22:04;;;;;;;12.25;7.20;;;;;;;11.76;85.51;101159.66;5011384;28;20042;-78
2022/10/02 05:25:20;;;;;;;12.90;6.93;;;;;;;11.98;84.02;101154.97;5015061;28;20041;-78
2022/10/02 05:28:39;;;;;;;9.20;6.28;;;;;;;12.23;83.48;101148.03;5027879;28;20065;-78
2022/10/02 05:31:45;;;;;;;9.70;6.18;;;;;;;12.09;84.10;101155.47;5007274;28;20523;-79
2022/10/02 05:34:36;;;;;;;;;;;;;;;12.26;83.40;101157.47;5016894;28;20053;-78
2022/10/02 05:37:52;;;;;;;8.20;5.40;;;;;;;12.09;84.55;101160.16;5018823;28;19913;-78
2022/10/02 05:41:04;;;;;;;7.93;5.90;;;;;;;12.22;83.75;101151.06;5011986;28;20531;-78
2022/10/02 05:43:59;;;;;;;12.77;5.68;;;;;;;12.12;84.28;101165.78;5019132;28;20057;-79
2022/10/02 05:47:08;;;;;;;12.27;6.15;;;;;;;12.37;83.77;101173.25;5015709;28;20523;-79
2022/10/02 05:49:59;;;;;;;7.05;5.53;;;;;;;12.30;82.96;101177.53;5012599;28;20050;-78
2022/10/02 05:52:58;;;;;;;9.27;6.05;;;;;;;12.40;83.01;101171.81;5004597;28;20041;-79
2022/10/02 05:55:54;;;;;;;9.95;5.13;;;;;;;12.66;81.71;101174.59;5001742;28;20041;-79
2022/10/02 05:58:50;;;;;;;;;;;;;;;12.63;81.32;101186.97;5016070;28;20066;-80
2022/10/02 06:01:41;;;;;;;7.80;5.70;;;;;;;12.59;81.53;101186.00;4996034;28;20288;-79
2022/10/02 06:04:31;;;;;;;6.85;4.93;;;;;;;12.73;81.53;101192.13;5008161;28;20064;-78
2022/10/02 06:07:17;;;;;;;8.65;5.50;;;;;;;12.85;81.25;101191.50;5016220;28;20425;-79
2022/10/02 06:10:12;;;;;;;8.20;5.22;;;;;;;12.85;81.83;101183.31;5015463;28;20053;-79
2022/10/02 06:13:23;;;;;;;10.60;4.78;;;;;;;12.98;81.08;101200.69;5015619;28;20037;-79
2022/10/02 06:16:08;;;;;;;7.82;4.72;;;;;;;12.84;82.42;101212.56;5003569;28;20532;-79
2022/10/02 06:18:58;;;;;;;10.07;4.88;;;;;;;13.03;82.52;101227.81;5015692;28;20056;-79
2022/10/02 06:21:58;;;;;;;6.85;5.10;;;;;;;13.11;81.76;101219.66;5021252;28;20048;-79
2022/10/02 06:24:50;;;;;;;10.77;4.57;;;;;;;13.40;80.38;101220.97;5019244;28;20170;-80
2022/10/02 06:27:47;;;;;;;7.78;4.25;;;;;;;13.65;78.87;101218.25;5015197;28;20033;-79
2022/10/02 06:30:36;;;;;;;7.20;4.80;;;;;;;13.63;79.64;101227.88;5010136;28;20045;-79
2022/10/02 06:33:27;;;;;;;7.95;4.70;;;;;;;13.67;79.68;101235.09;5017235;28;20045;-79
2022/10/02 06:36:38;;;;;;;5.60;4.20;;;;;;;13.84;78.44;101222.53;5013435;28;20049;-79
2022/10/02 06:39:41;;;;;;;7.22;4.57;;;;;;;14.02;77.67;101244.03;5016798;28;20049;-79
2022/10/02 06:42:53;;;;;;;13.20;4.38;;;;;;;13.96;78.57;101252.78;5009111;28;20264;-79
2022/10/02 06:45:46;;;;;;;11.05;4.05;;;;;;;14.06;77.66;101249.69;4999663;28;20057;-80
2022/10/02 06:49:03;;;;;;;9.38;4.70;;;;;;;14.27;76.98;101258.81;5008485;28;20045;-79
2022/10/02 06:52:11;;;;;;;10.00;4.40;;;;;;;14.39;77.24;101263.59;5017980;28;20523;-79
2022/10/02 06:55:34;;;;;;;16.73;5.22;;;;;;;14.78;76.53;101268.75;5017622;28;20050;-80
2022/10/02 06:58:33;;;;;;;9.35;4.95;;;;;;;15.35;74.80;101260.84;5013514;28;20034;-79
2022/10/02 07:01:46;;;;;;;11.10;5.50;;;;;;;15.73;74.07;101263.47;5009885;28;20053;-80
2022/10/02 07:04:43;;;;;;;5.55;4.57;;;;;;;15.99;73.37;101271.44;5016124;28;20038;-79
2022/10/02 07:07:48;;;;;;;8.52;4.80;;;;;;;16.04;73.85;101268.50;5006570;28;20124;-80
2022/10/02 07:10:40;;;;;;;;;;;;;;;16.14;74.61;101278.25;5010125;28;20049;-79
2022/10/02 07:14:01;;;;;;;8.98;5.63;;;;;;;16.63;72.81;101290.13;5018354;28;19921;-79
2022/10/02 07:17:04;;;;;;;10.27;5.15;;;;;;;17.29;71.74;101287.13;5020156;28;20421;-79
2022/10/02 07:20:14;;;;;;;9.30;5.88;;;;;;;17.26;70.09;101288.66;5006218;28;20053;-78
2022/10/02 07:23:26;;;;;;;9.45;5.45;;;;;;;17.87;70.10;101277.50;5012723;28;20056;-79
2022/10/02 07:26:29;;;;;;;8.60;5.28;;;;;;;18.49;67.68;101287.78;5005261;28;20049;-79
2022/10/02 07:29:32;;;;;;;11.05;6.85;;;;;;;18.27;68.50;101282.91;5005985;28;20972;-78
2022/10/02 07:32:17;;;;;;;9.90;4.97;;;;;;;18.49;67.89;101278.75;5008322;28;20488;-79
2022/10/02 07:35:24;;;;;;;10.93;6.00;;;;;;;19.32;65.27;101286.69;5012690;28;20049;-79
2022/10/02 07:38:11;;;;;;;9.23;3.97;;;;;;;18.90;65.16;101286.47;5006750;28;20046;-79
2022/10/02 07:40:58;;;;;;;6.65;4.13;;;;;;;19.80;61.27;101290.09;5004887;28;20052;-79
2022/10/02 07:44:03;;;;;;;10.68;3.97;;;;;;;19.26;62.65;101285.34;5006656;28;20413;-80
2022/10/02 07:47:02;;;;;;;29.93;7.27;;;;;;;18.92;62.84;101286.13;5005516;28;20445;-79
2022/10/02 07:49:54;;;;;;;56.60;6.78;;;;;;;18.84;64.13;101298.97;5009879;28;20292;-80
2022/10/02 07:53:09;;;;;;;17.73;7.40;;;;;;;18.86;63.54;101291.13;5005607;28;20042;-79
2022/10/02 07:55:55;;;;;;;17.42;7.10;;;;;;;18.40;64.32;101292.69;5009467;28;20121;-76
2022/10/02 07:58:50;;;;;;;22.45;7.63;;;;;;;18.73;63.99;101284.91;5007764;28;20046;-79
2022/10/02 08:01:40;;;;;;;10.05;5.20;;;;;;;19.57;61.06;101290.81;5013670;28;20428;-79
2022/10/02 08:04:25;;;;;;;18.42;6.18;;;;;;;19.71;61.01;101282.00;5016014;28;20038;-80
2022/10/02 08:07:11;;;;;;;13.18;6.38;;;;;;;19.53;61.12;101287.19;5016429;28;20053;-80
2022/10/02 08:10:00;;;;;;;35.78;8.70;;;;;;;19.36;62.32;101286.75;5008611;28;20038;-79
2022/10/02 08:12:54;;;;;;;14.27;6.07;;;;;;;19.78;60.12;101279.41;5014402;28;20054;-77
2022/10/02 08:15:42;;;;;;;20.50;6.90;;;;;;;19.53;61.12;101287.19;5013012;28;20042;-79
2022/10/02 08:18:35;;;;;;;13.63;6.93;;;;;;;19.45;62.13;101279.91;5008509;28;20046;-78
2022/10/02 08:21:23;;;;;;;11.82;7.47;;;;;;;19.47;61.65;101277.59;5012005;28;20408;-82
2022/10/02 08:24:16;;;;;;;17.75;7.72;;;;;;;19.84;61.30;101277.16;5012233;28;20042;-79
2022/10/02 08:27:11;;;;;;;11.35;7.45;;;;;;;19.48;61.90;101278.38;5008914;28;20061;-78
2022/10/02 08:30:05;;;;;;;14.05;7.72;;;;;;;19.56;62.45;101275.41;5005329;28;20045;-78
2022/10/02 08:32:50;;;;;;;13.48;8.48;;;;;;;19.63;60.49;101264.53;5013228;28;20413;-78
2022/10/02 08:35:46;;;;;;;11.00;7.70;;;;;;;19.51;61.58;101277.66;5005882;28;20049;-78
2022/10/02 08:38:38;;;;;;;10.48;6.60;;;;;;;19.02;62.56;101280.06;5007958;28;20042;-79
2022/10/02 08:41:57;;;;;;;11.45;6.15;;;;;;;19.39;62.52;101278.56;5011956;28;20057;-79
2022/10/02 08:44:54;;;;;;;8.73;5.47;;;;;;;20.01;60.57;101285.00;5000876;28;20065;-78
2022/10/02 08:48:05;;;;;;;16.02;7.07;;;;;;;19.51;60.85;101264.66;5009002;28;20045;-80
2022/10/02 08:51:19;;;;;;;11.48;6.47;;;;;;;19.34;62.42;101270.56;5002040;28;20050;-77
2022/10/02 08:54:44;;;;;;;11.90;7.40;;;;;;;18.75;62.93;101277.09;5008874;28;20416;-78
2022/10/02 08:57:53;;;;;;;11.73;7.25;;;;;;;19.21;61.52;101274.59;5003849;28;20049;-78
2022/10/02 09:00:56;;;;;;;10.45;7.60;;;;;;;19.66;60.48;101260.22;5005373;28;20046;-79
2022/10/02 09:03:44;;;;;;;11.70;7.43;;;;;;;19.53;60.79;101247.75;5003743;28;20041;-79
2022/10/02 09:07:00;;;;;;;9.93;6.18;;;;;;;19.99;59.99;101243.16;4998949;28;20037;-78
2022/10/02 09:10:10;;;;;;;7.18;5.10;;;;;;;20.26;59.16;101231.03;5003016;28;20044;-78
2022/10/02 09:13:26;;;;;;;11.25;7.03;;;;;;;20.46;58.78;101234.53;5005527;28;20413;-79
2022/10/02 09:16:23;;;;;;;15.20;7.90;;;;;;;20.23;59.79;101234.50;5001899;28;20060;-78
2022/10/02 09:19:24;;;;;;;14.13;9.55;;;;;;;20.20;58.71;101238.00;5002672;28;20422;-78
2022/10/02 09:22:45;;;;;;;16.02;7.57;;;;;;;20.39;59.36;101245.47;4998403;28;20038;-79
2022/10/02 09:25:49;;;;;;;12.68;7.70;;;;;;;20.34;58.87;101238.28;5002308;28;20054;-78
2022/10/02 09:28:39;;;;;;;15.18;8.13;;;;;;;20.35;58.39;101231.59;5004419;28;20046;-78
2022/10/02 09:31:24;;;;;;;12.00;7.82;;;;;;;20.43;58.72;101238.03;5001428;28;20073;-76
2022/10/02 09:34:28;;;;;;;13.38;5.88;;;;;;;20.67;57.81;101242.41;5034017;28;20042;-79
2022/10/02 09:37:50;;;;;;;13.68;9.57;;;;;;;20.35;58.75;101231.59;4998632;28;20053;-80
2022/10/02 09:40:53;;;;;;;10.73;8.18;;;;;;;20.45;58.50;101227.41;5008493;28;20045;-79
2022/10/02 09:43:57;;;;;;;14.95;9.20;;;;;;;20.47;57.90;101214.00;5004760;28;20046;-79
2022/10/02 09:46:54;;;;;;;16.77;9.10;;;;;;;20.35;58.59;101206.75;5004562;28;20517;-79
2022/10/02 09:50:11;;;;;;;12.75;8.48;;;;;;;20.42;58.14;101206.84;5003870;28;20042;-79
2022/10/02 09:53:23;;;;;;;19.65;8.05;;;;;;;20.47;58.91;101212.06;5005997;28;20041;-79
2022/10/02 09:56:08;;;;;;;16.13;9.50;;;;;;;20.52;58.32;101216.47;5016987;28;20042;-79
2022/10/02 09:59:16;;;;;;;14.70;9.50;;;;;;;20.71;57.19;101204.53;5011331;28;20515;-79
2022/10/02 10:02:31;;;;;;;13.60;9.18;;;;;;;20.54;57.75;101207.81;5009699;28;20029;-80
2022/10/02 10:05:33;;;;;;;19.77;9.25;;;;;;;20.70;56.79;101212.03;5008716;28;20038;-78
2022/10/02 10:08:21;;;;;;;14.07;9.35;;;;;;;20.63;57.22;101211.91;5008116;28;20054;-81
2022/10/02 10:11:37;;;;;;;12.52;7.57;;;;;;;20.69;56.83;101209.63;5015588;28;20052;-80
2022/10/02 10:14:27;;;;;;;;;;;;;;;21.11;57.14;101203.94;5029230;28;20401;-81
2022/10/02 10:17:55;;;;;;;17.38;8.90;;;;;;;21.07;57.33;101203.09;5017162;28;19913;-81
2022/10/02 10:21:26;;;;;;;14.82;8.55;;;;;;;20.96;56.55;101197.41;5023375;28;20501;-81
2022/10/02 10:24:30;;;;;;;11.82;7.93;;;;;;;21.24;55.79;101197.00;5018986;28;20061;-80
2022/10/02 10:27:47;;;;;;;17.10;9.32;;;;;;;21.27;54.52;101202.59;5018700;28;20057;-81
2022/10/02 10:31:01;;;;;;;12.80;8.43;;;;;;;21.22;55.29;101202.13;5012608;28;20034;-81
2022/10/02 10:34:33;;;;;;;16.90;8.75;;;;;;;21.55;54.64;101201.34;5037691;28;20053;-81
2022/10/02 10:41:02;;;;;;;11.00;6.97;;;;;;;21.66;54.40;101186.47;5015081;28;20420;-80
2022/10/02 10:44:02;;;;;;;16.20;7.05;;;;;;;22.10;53.22;101200.38;5015044;28;20501;-80
2022/10/02 10:46:58;;;;;;;13.38;8.80;;;;;;;21.74;54.32;101195.63;5019225;28;20050;-80
2022/10/02 10:50:02;;;;;;;14.82;8.80;;;;;;;21.88;53.27;101190.25;5016670;28;20547;-80
2022/10/02 10:53:12;;;;;;;10.18;6.03;;;;;;;22.26;52.35;101194.59;5014430;28;20049;-80
2022/10/02 10:56:21;;;;;;;14.52;7.25;;;;;;;22.74;50.64;101186.28;5017653;28;20049;-81
2022/10/02 10:59:19;;;;;;;16.02;7.63;;;;;;;22.05;51.30;101184.09;5012975;28;20513;-81
2022/10/02 11:02:52;;;;;;;15.50;9.10;;;;;;;23.00;49.73;101184.06;5009757;28;20060;-81
2022/10/02 11:06:25;;;;;;;14.10;7.10;;;;;;;24.59;45.79;101183.63;5011596;28;20056;-83
2022/10/02 11:09:10;;;;;;;15.75;7.45;;;;;;;28.77;36.85;101193.66;5031311;23;20042;31
2022/10/02 11:12:15;;;;;;;11.10;6.38;;;;;;;36.64;24.44;101206.50;4925162;29;20083;-79
2022/10/02 11:15:34;;;;;;;11.05;6.90;;;;;;;38.54;21.12;101209.75;4922582;29;20047;-78
2022/10/02 11:18:38;;;;;;;8.27;5.53;;;;;;;40.98;18.22;101194.56;4959983;28;20059;-78
2022/10/02 11:21:22;;;;;;;8.18;5.50;;;;;;;42.16;16.63;101206.81;4928891;29;20411;-78
2022/10/02 11:24:33;;;;;;;9.30;7.07;;;;;;;41.60;17.36;101200.38;4935173;29;20054;-80
2022/10/02 11:27:27;;;;;;;8.50;5.45;;;;;;;43.02;15.99;101191.09;4949508;28;20043;-79
2022/10/02 11:30:21;;;;;;;10.18;7.88;;;;;;;40.73;17.87;101184.16;4934765;29;20063;-80
2022/10/02 11:33:38;;;;;;;6.25;4.72;;;;;;;44.49;14.71;101187.09;4934632;29;20050;-81
2022/10/02 11:36:51;;;;;;;10.82;7.40;;;;;;;42.22;16.36;101176.88;4945563;29;20046;-79
2022/10/02 11:40:14;;;;;;;10.17;5.70;;;;;;;42.61;15.74;101167.38;4955477;28;20055;-81
2022/10/02 11:43:12;;;;;;;22.65;7.00;;;;;;;43.81;15.06;101171.94;4929789;29;20059;-82
2022/10/02 11:46:20;;;;;;;8.15;5.75;;;;;;;45.72;13.20;101170.84;4933930;29;20046;-79
2022/10/02 11:49:34;;;;;;;8.57;5.03;;;;;;;44.95;13.72;101159.31;4930645;29;20066;-82
2022/10/02 11:52:47;;;;;;;15.45;7.13;;;;;;;43.05;15.29;101152.78;4934929;29;20038;-81
2022/10/02 11:56:02;;;;;;;8.55;6.40;;;;;;;43.18;15.20;101148.56;4930755;29;20510;-82
2022/10/02 11:59:08;;;;;;;;;;;;;;;43.46;14.92;101140.50;4934158;29;20132;-81
2022/10/02 12:02:07;;;;;;;7.18;5.15;;;;;;;44.56;13.89;101139.75;4934377;29;19915;-83
2022/10/02 12:05:14;;;;;;;10.27;5.80;;;;;;;44.71;14.02;101131.47;4933827;29;20051;-81
2022/10/02 12:08:16;;;;;;;9.18;5.65;;;;;;;43.02;14.95;101118.72;4962149;28;20060;-82
2022/10/02 12:11:32;;;;;;;8.25;5.20;;;;;;;44.44;14.07;101112.56;4928920;29;20590;-80
2022/10/02 12:14:30;;;;;;;8.50;6.32;;;;;;;46.03;12.77;101115.31;4930897;29;20047;-82
2022/10/02 12:17:42;;;;;;;12.80;9.00;;;;;;;44.88;13.68;101111.91;4927758;29;20042;-79
2022/10/02 12:27:43;;;;;;;11.20;5.28;;;;;;;37.46;20.47;101074.41;4937273;29;20054;-77
2022/10/02 12:30:44;;;;;;;6.68;5.20;;;;;;;41.13;16.72;101076.56;4935697;29;20055;-79
2022/10/02 12:33:32;;;;;;;10.85;5.80;;;;;;;43.52;15.14;101074.56;4936826;29;20411;-76
2022/10/02 12:36:38;;;;;;;9.63;4.93;;;;;;;42.23;16.17;101064.06;4935150;29;20047;-78
2022/10/02 12:39:35;;;;;;;6.60;5.10;;;;;;;42.33;15.99;101058.03;4930286;29;20063;-77
2022/10/02 12:42:54;;;;;;;8.07;5.07;;;;;;;42.71;15.58;101045.59;4916208;29;20051;-77
2022/10/02 12:46:17;;;;;;;6.38;4.68;;;;;;;42.65;15.92;101044.84;4936294;29;20055;-78
2022/10/02 12:49:30;;;;;;;6.00;4.47;;;;;;;41.82;16.40;101034.59;4939093;29;20043;-77
2022/10/02 12:53:08;;;;;;;5.72;3.75;;;;;;;43.26;15.46;101035.75;4917232;29;20051;-83
2022/10/02 12:56:02;;;;;;;9.98;5.13;;;;;;;41.38;17.03;101035.50;4927109;29;20062;-81
2022/10/02 12:59:05;;;;;;;10.35;5.05;;;;;;;43.27;15.18;101034.44;4941386;28;20055;-80
2022/10/02 13:02:26;;;;;;;9.18;3.40;;;;;;;46.42;12.75;101042.56;4943386;28;20039;-83
2022/10/02 13:05:54;;;;;;;10.05;3.55;;;;;;;39.00;18.64;101019.19;4932600;29;20423;-80
2022/10/02 13:09:04;;;;;;;7.95;2.80;;;;;;;42.85;15.96;101021.53;4934350;29;20039;-81
2022/10/02 13:12:07;;;;;;;7.07;3.15;;;;;;;46.03;12.99;101016.75;4924000;29;20051;-81
2022/10/02 13:15:25;;;;;;;11.07;3.55;;;;;;;46.18;12.71;101014.06;4930719;29;20515;-81
2022/10/02 13:18:33;;;;;;;5.80;3.17;;;;;;;45.19;13.82;101009.06;4929602;29;20043;-81
2022/10/02 13:21:36;;;;;;;9.65;3.60;;;;;;;43.63;15.00;101003.59;4926282;29;20063;-81
2022/10/02 13:24:53;;;;;;;6.45;2.30;;;;;;;39.57;18.53;100988.50;4929709;29;20063;-82
2022/10/02 13:27:49;;;;;;;4.20;2.33;;;;;;;36.15;22.41;100980.38;4944277;28;20420;-80
2022/10/02 13:30:45;;;;;;;4.30;2.40;;;;;;;39.51;18.72;100978.41;4937786;29;20054;-80
2022/10/02 13:33:41;;;;;;;5.88;3.40;;;;;;;38.00;19.71;100971.41;4938179;29;20534;-79
2022/10/02 13:36:48;;;;;;;5.05;3.15;;;;;;;38.67;19.65;100974.94;4940090;29;20055;-79
2022/10/02 13:40:11;;;;;;;4.85;3.50;;;;;;;35.59;23.32;100973.53;4933812;29;20042;-80
2022/10/02 13:43:25;;;;;;;8.23;3.23;;;;;;;35.75;23.33;100965.91;4938856;29;20051;-78
2022/10/02 13:46:28;;;;;;;10.13;2.90;;;;;;;34.99;24.09;100968.06;4931126;29;20059;-80
2022/10/02 13:49:37;;;;;;;14.85;4.00;;;;;;;36.27;22.94;100961.56;4938073;29;20047;-79
2022/10/02 13:52:43;;;;;;;6.07;3.60;;;;;;;36.18;22.34;100953.91;4941828;29;20039;-80
2022/10/02 13:55:33;;;;;;;7.75;4.13;;;;;;;37.00;22.33;100941.66;4938328;29;20415;-79
2022/10/02 13:58:34;;;;;;;9.20;3.92;;;;;;;39.20;19.19;100945.88;4937740;29;20050;-79
2022/10/02 14:01:44;;;;;;;5.25;3.30;;;;;;;35.81;22.85;100927.19;4937771;29;20088;-79
2022/10/02 14:04:56;;;;;;;10.35;3.92;;;;;;;36.21;22.47;100921.78;4937566;29;20051;-79
2022/10/02 14:08:01;;;;;;;14.35;3.75;;;;;;;37.35;21.33;100916.13;4922392;29;20044;-83